Terminal Aerodrome Forecast
Issued by NWS Cleveland, OH

Home | Current Version | Previous Version | Graphics & Text | Print | Product List | Glossary On
Versions: 1 2 3 4 5 6 7 8 9 10 11 12 13 14 15 16 17
000
FTUS41 KCLE 192322
TAFYNG
TAF
KYNG 192322Z 2000/2024 30005KT P6SM FEW050
     FM200100 29003KT P6SM FEW250
     FM200800 20002KT 4SM BR SCT250
     FM201400 23005KT P6SM SCT060 BKN150
     FM202000 24009KT P6SM VCTS BKN040CB=

USA.gov is the U.S. government's official web portal to all federal, state and local government web resources and services.